createdAt,value
2022-11-10T00:00:37.892Z,6.00
2022-11-10T00:03:24.421Z,6.03
2022-11-10T00:06:10.475Z,6.15
2022-11-10T00:08:57.201Z,6.07
2022-11-10T00:11:43.413Z,6.10
2022-11-10T00:14:47.258Z,5.40
2022-11-10T00:17:36.200Z,6.18
2022-11-10T00:20:22.616Z,6.07
2022-11-10T00:23:08.488Z,5.70
2022-11-10T00:25:54.229Z,5.85
2022-11-10T00:28:40.437Z,5.35
2022-11-10T00:31:28.773Z,5.70
2022-11-10T00:34:16.765Z,5.40
2022-11-10T00:37:03.116Z,5.95
2022-11-10T00:39:49.147Z,5.68
2022-11-10T00:42:35.314Z,5.95
2022-11-10T00:45:21.112Z,5.40
2022-11-10T00:48:07.125Z,5.45
2022-11-10T00:50:55.798Z,5.85
2022-11-10T00:53:41.613Z,5.55
2022-11-10T00:56:27.550Z,5.68
2022-11-10T01:01:59.332Z,5.45
2022-11-10T01:04:45.185Z,5.13
2022-11-10T01:07:32.493Z,5.70
2022-11-10T01:10:18.408Z,5.03
2022-11-10T01:13:04.089Z,4.93
2022-11-10T01:15:50.012Z,5.55
2022-11-10T01:18:36.347Z,5.53
2022-11-10T01:21:23.103Z,5.38
2022-11-10T01:24:09.024Z,5.15
2022-11-10T01:26:54.900Z,4.57
2022-11-10T01:29:40.723Z,5.20
2022-11-10T01:32:26.743Z,5.68
2022-11-10T01:35:13.224Z,5.22
2022-11-10T01:40:45.756Z,5.28
2022-11-10T01:43:32.472Z,4.65
2022-11-10T01:46:18.384Z,4.78
2022-11-10T01:49:04.946Z,5.10
2022-11-10T01:51:54.986Z,5.35
2022-11-10T01:54:48.540Z,5.07
2022-11-10T01:57:36.229Z,5.15
2022-11-10T02:00:22.582Z,5.20
2022-11-10T02:03:32.460Z,5.05
2022-11-10T02:06:22.969Z,5.68
2022-11-10T02:09:09.239Z,5.30
2022-11-10T02:11:56.730Z,5.15
2022-11-10T02:14:43.530Z,4.70
2022-11-10T02:17:29.400Z,6.05
2022-11-10T02:20:18.695Z,5.80
2022-11-10T02:23:30.320Z,9.57
2022-11-10T02:26:20.828Z,8.73
2022-11-10T02:29:06.874Z,8.38
2022-11-10T02:31:52.780Z,14.02
2022-11-10T02:34:38.342Z,11.98
2022-11-10T02:37:24.130Z,9.07
2022-11-10T02:40:10.517Z,6.57
2022-11-10T02:42:56.279Z,9.80
2022-11-10T02:45:44.732Z,6.55
2022-11-10T02:48:32.433Z,6.00
2022-11-10T02:51:18.678Z,4.47
2022-11-10T02:54:04.334Z,4.88
2022-11-10T02:56:50.206Z,5.15
2022-11-10T02:59:35.845Z,5.00
2022-11-10T03:02:21.676Z,4.93
2022-11-10T03:05:07.709Z,4.60
2022-11-10T03:07:58.004Z,5.50
2022-11-10T03:10:43.644Z,5.40
2022-11-10T03:13:45.293Z,8.18
2022-11-10T03:16:36.724Z,5.88
2022-11-10T03:19:22.685Z,6.03
2022-11-10T03:22:08.427Z,5.60
2022-11-10T03:24:54.251Z,4.50
2022-11-10T03:27:40.359Z,4.95
2022-11-10T03:30:26.675Z,4.68
2022-11-10T03:33:12.314Z,4.53
2022-11-10T03:35:58.312Z,4.15
2022-11-10T03:38:44.306Z,4.00
2022-11-10T03:41:30.271Z,4.03
2022-11-10T03:44:15.997Z,4.13
2022-11-10T03:47:04.201Z,4.13
2022-11-10T03:49:50.046Z,4.05
2022-11-10T03:52:35.756Z,4.05
2022-11-10T03:55:21.757Z,3.85
2022-11-10T03:58:07.788Z,3.97
2022-11-10T04:00:55.086Z,4.32
2022-11-10T04:03:41.039Z,3.92
2022-11-10T04:06:45.235Z,4.30
2022-11-10T04:09:31.250Z,4.25
2022-11-10T04:12:35.238Z,4.20
2022-11-10T04:15:39.951Z,3.70
2022-11-10T04:18:26.065Z,3.90
2022-11-10T04:21:12.468Z,3.97
2022-11-10T04:23:58.297Z,3.97
2022-11-10T04:26:44.976Z,4.43
2022-11-10T04:29:30.994Z,4.22
2022-11-10T04:32:16.697Z,3.58
2022-11-10T04:35:03.871Z,3.92
2022-11-10T04:37:49.708Z,4.10
2022-11-10T04:40:35.771Z,3.90
2022-11-10T04:43:22.139Z,4.35
2022-11-10T04:46:13.246Z,4.00
2022-11-10T04:49:00.317Z,4.05
2022-11-10T04:51:46.777Z,4.32
2022-11-10T04:54:32.209Z,4.30
2022-11-10T04:57:18.182Z,4.07
2022-11-10T05:00:05.103Z,4.07
2022-11-10T05:02:50.657Z,4.20
2022-11-10T05:05:38.408Z,4.22
2022-11-10T05:08:24.446Z,4.03
2022-11-10T05:11:11.196Z,3.90
2022-11-10T05:13:57.242Z,4.32
2022-11-10T05:16:43.364Z,4.43
2022-11-10T05:19:29.185Z,4.38
2022-11-10T05:22:15.460Z,4.78
2022-11-10T05:25:01.424Z,4.30
2022-11-10T05:27:47.601Z,4.05
2022-11-10T05:30:33.783Z,5.43
2022-11-10T05:33:19.952Z,4.32
2022-11-10T05:36:07.587Z,4.55
2022-11-10T05:38:53.707Z,4.55
2022-11-10T05:41:39.492Z,4.80
2022-11-10T05:44:25.468Z,4.43
2022-11-10T05:47:11.275Z,4.82
2022-11-10T05:49:57.203Z,4.72
2022-11-10T05:52:50.354Z,4.60
2022-11-10T05:55:36.849Z,4.00
2022-11-10T05:58:22.964Z,3.80
2022-11-10T06:01:08.718Z,4.03
2022-11-10T06:03:54.446Z,3.85
2022-11-10T06:06:40.349Z,3.88
2022-11-10T06:12:11.988Z,4.07
2022-11-10T06:14:58.521Z,3.95
2022-11-10T06:17:45.097Z,4.38
2022-11-10T06:20:30.834Z,3.83
2022-11-10T06:23:18.086Z,4.20
2022-11-10T06:26:04.077Z,4.95
2022-11-10T08:24:18.524Z,6.05
2022-11-10T08:29:55.066Z,10.07
2022-11-10T08:35:29.808Z,8.88
2022-11-10T08:38:21.399Z,7.65
2022-11-10T08:41:07.684Z,8.77
2022-11-10T08:43:53.690Z,5.53
2022-11-10T08:46:39.987Z,4.63
2022-11-10T08:49:28.030Z,4.75
2022-11-10T08:52:14.331Z,5.00
2022-11-10T09:07:31.830Z,4.68
2022-11-10T09:10:17.712Z,4.70
2022-11-10T09:13:04.819Z,4.70
2022-11-10T09:35:04.080Z,5.47
2022-11-10T09:37:51.702Z,5.63
2022-11-10T10:32:19.964Z,5.13
2022-11-10T10:35:07.432Z,5.20
2022-11-10T10:37:56.483Z,5.07
2022-11-10T10:40:43.477Z,4.70
2022-11-10T10:43:29.462Z,4.28
2022-11-10T10:49:31.364Z,3.90
2022-11-10T10:52:25.439Z,5.10
2022-11-10T10:55:13.517Z,4.63
2022-11-10T10:58:21.180Z,4.65
2022-11-10T11:01:33.113Z,4.63
2022-11-10T11:04:36.123Z,4.68
2022-11-10T11:07:24.809Z,4.95
2022-11-10T11:10:19.763Z,4.50
2022-11-10T11:13:27.103Z,4.82
2022-11-10T11:16:13.495Z,4.63
2022-11-10T11:22:00.000Z,4.43
2022-11-10T11:25:08.810Z,4.18
2022-11-10T11:28:28.627Z,4.30
2022-11-10T11:31:42.898Z,4.65
2022-11-10T11:35:10.560Z,4.15
2022-11-10T11:40:57.907Z,4.03
2022-11-10T11:44:11.541Z,4.40
2022-11-10T11:47:09.442Z,4.68
2022-11-10T11:50:24.992Z,4.50
2022-11-10T11:53:48.040Z,4.55
2022-11-10T11:56:41.606Z,4.70
2022-11-10T11:59:30.571Z,4.60
2022-11-10T12:02:53.676Z,4.28
2022-11-10T12:06:07.071Z,4.10
2022-11-10T12:09:25.102Z,5.18
2022-11-10T12:12:20.505Z,5.13
2022-11-10T12:15:30.451Z,4.90
2022-11-10T12:18:25.687Z,4.93
2022-11-10T12:21:32.916Z,4.60
2022-11-10T12:24:24.852Z,5.15
2022-11-10T12:27:35.952Z,4.25
2022-11-10T12:30:23.475Z,4.70
2022-11-10T12:33:21.970Z,4.57
2022-11-10T12:36:13.301Z,4.95
2022-11-10T12:39:24.146Z,4.70
2022-11-10T12:42:20.254Z,4.75
2022-11-10T12:45:15.771Z,4.32
2022-11-10T12:48:03.776Z,5.25
2022-11-10T12:51:22.000Z,5.07
2022-11-10T12:54:16.688Z,5.25
2022-11-10T12:57:16.608Z,5.93
2022-11-10T13:00:31.395Z,5.50
2022-11-10T13:03:36.585Z,5.10
2022-11-10T13:06:32.764Z,5.47
2022-11-10T13:09:40.521Z,5.32
2022-11-10T13:12:26.815Z,4.70
2022-11-10T13:15:59.983Z,5.30
2022-11-10T13:18:53.496Z,5.47
2022-11-10T13:21:51.567Z,5.28
2022-11-10T13:24:39.954Z,5.25
2022-11-10T13:27:44.555Z,5.72
2022-11-10T13:30:52.981Z,5.10
2022-11-10T13:33:39.663Z,5.40
2022-11-10T13:36:38.379Z,5.60
2022-11-10T13:39:27.492Z,5.97
2022-11-10T13:42:24.151Z,5.90
2022-11-10T13:45:29.685Z,6.00
2022-11-10T13:48:18.427Z,6.15
2022-11-10T13:51:23.231Z,6.20
2022-11-10T13:54:32.881Z,6.78
2022-11-10T13:57:41.280Z,6.28
2022-11-10T14:00:31.080Z,6.43
2022-11-10T14:03:45.163Z,5.95
2022-11-10T14:06:53.453Z,6.43
2022-11-10T14:10:00.935Z,5.80
2022-11-10T14:13:03.119Z,5.60
2022-11-10T14:15:50.921Z,6.15
2022-11-10T14:18:47.095Z,6.65
2022-11-10T14:21:40.086Z,7.85
2022-11-10T14:24:38.513Z,8.63
2022-11-10T14:27:28.898Z,9.30
2022-11-10T14:30:50.708Z,8.90
2022-11-10T14:33:37.421Z,9.48
2022-11-10T14:36:26.017Z,9.65
2022-11-10T14:39:17.535Z,9.95
2022-11-10T14:42:06.053Z,10.00
2022-11-10T14:45:25.734Z,9.73
2022-11-10T14:48:20.302Z,10.25
2022-11-10T14:51:17.338Z,9.57
2022-11-10T14:54:03.331Z,9.60
2022-11-10T14:56:50.168Z,9.25
2022-11-10T14:59:38.312Z,10.00
2022-11-10T15:02:24.434Z,9.80
2022-11-10T15:08:05.030Z,11.52
2022-11-10T15:10:56.713Z,11.95
2022-11-10T15:13:42.993Z,10.90
2022-11-10T15:19:32.391Z,12.10
2022-11-10T15:22:37.330Z,12.45
2022-11-10T15:25:26.433Z,11.75
2022-11-10T15:28:33.571Z,12.20
2022-11-10T15:31:32.944Z,12.13
2022-11-10T15:34:45.601Z,12.10
2022-11-10T15:37:32.475Z,13.10
2022-11-10T15:40:36.053Z,13.30
2022-11-10T15:43:26.478Z,12.25
2022-11-10T15:46:24.736Z,13.65
2022-11-10T15:49:22.560Z,14.05
2022-11-10T15:52:15.596Z,14.35
2022-11-10T15:55:01.415Z,14.98
2022-11-10T16:00:33.245Z,14.80
2022-11-10T16:06:09.223Z,16.50
2022-11-10T16:08:55.097Z,17.17
2022-11-10T16:11:45.094Z,18.58
2022-11-10T16:14:31.199Z,18.30
2022-11-10T16:17:20.480Z,17.63
2022-11-10T16:20:15.255Z,17.98
2022-11-10T16:23:01.145Z,18.88
2022-11-10T16:25:49.990Z,18.77
2022-11-10T16:28:35.851Z,19.63
2022-11-10T16:34:13.736Z,20.15
2022-11-10T16:36:59.768Z,20.15
2022-11-10T16:42:31.341Z,21.17
2022-11-10T16:45:19.777Z,21.15
2022-11-10T16:48:07.860Z,20.58
2022-11-10T16:50:58.871Z,20.45
2022-11-10T16:53:45.695Z,21.15
2022-11-10T16:56:31.613Z,20.60
2022-11-10T16:59:17.504Z,21.45
2022-11-10T17:04:49.516Z,22.48
2022-11-10T17:07:36.305Z,22.13
2022-11-10T17:10:22.455Z,20.80
2022-11-10T17:13:11.934Z,24.77
2022-11-10T17:16:04.260Z,25.05
2022-11-10T17:18:51.292Z,25.02
2022-11-10T17:21:37.456Z,25.30
2022-11-10T17:24:24.401Z,26.48
2022-11-10T17:27:10.766Z,27.35
2022-11-10T17:29:56.974Z,28.83
2022-11-10T17:33:04.324Z,30.70
2022-11-10T17:35:51.175Z,32.55
2022-11-10T17:38:36.938Z,32.05
2022-11-10T17:41:23.061Z,31.50
2022-11-10T17:47:02.415Z,31.85
2022-11-10T17:49:48.082Z,31.92
2022-11-10T17:52:34.861Z,32.08
2022-11-10T17:55:23.648Z,30.67
2022-11-10T17:58:11.003Z,32.17
2022-11-10T18:00:56.776Z,29.83
2022-11-10T18:03:43.232Z,28.13
2022-11-10T18:06:28.911Z,29.55
2022-11-10T18:09:14.814Z,29.30
2022-11-10T18:12:00.783Z,28.67
2022-11-10T18:17:32.278Z,28.55
2022-11-10T18:20:18.403Z,28.02
2022-11-10T18:23:04.607Z,27.60
2022-11-10T18:25:50.505Z,27.45
2022-11-10T18:28:36.581Z,27.55
2022-11-10T18:31:22.642Z,26.45
2022-11-10T18:36:54.560Z,27.00
2022-11-10T18:42:26.153Z,27.15
2022-11-10T18:45:13.244Z,28.42
2022-11-10T18:48:03.758Z,31.83
2022-11-10T18:50:49.718Z,33.83
2022-11-10T18:53:38.320Z,40.05
2022-11-10T18:56:25.420Z,44.05
2022-11-10T18:59:12.533Z,42.58
2022-11-10T19:01:58.198Z,41.17
2022-11-10T19:07:30.287Z,28.15
2022-11-10T19:10:16.240Z,30.42
2022-11-10T19:13:02.082Z,25.50
2022-11-10T19:15:48.196Z,23.77
2022-11-10T19:21:29.158Z,23.40
2022-11-10T19:24:25.836Z,23.05
2022-11-10T19:27:14.345Z,21.00
2022-11-10T19:30:00.225Z,20.33
2022-11-10T19:32:46.087Z,21.02
2022-11-10T19:35:33.246Z,21.92
2022-11-10T19:38:19.259Z,20.30
2022-11-10T19:41:13.571Z,22.95
2022-11-10T19:44:00.495Z,24.48
2022-11-10T19:46:47.017Z,23.13
2022-11-10T19:49:38.505Z,19.63
2022-11-10T19:52:24.466Z,21.85
2022-11-10T19:57:56.083Z,24.70
2022-11-10T20:00:49.373Z,20.58
2022-11-10T20:03:35.659Z,21.05
2022-11-10T20:06:23.405Z,20.02
2022-11-10T20:09:09.341Z,21.25
2022-11-10T20:14:41.439Z,20.00
2022-11-10T20:17:28.390Z,19.70
2022-11-10T20:20:14.472Z,19.92
2022-11-10T20:23:04.673Z,18.55
2022-11-10T20:26:00.907Z,19.30
2022-11-10T20:28:46.779Z,18.88
2022-11-10T20:31:32.595Z,19.63
2022-11-10T20:34:18.542Z,20.48
2022-11-10T20:37:04.288Z,20.92
2022-11-10T20:39:50.217Z,19.52
2022-11-10T20:42:42.437Z,20.50
2022-11-10T20:45:28.943Z,21.48
2022-11-10T20:48:15.844Z,20.27
2022-11-10T20:51:02.458Z,20.77
2022-11-10T20:53:49.231Z,21.63
2022-11-10T20:56:35.191Z,22.20
2022-11-10T20:59:21.273Z,23.42
2022-11-10T21:02:11.000Z,22.10
2022-11-10T21:04:56.651Z,22.50
2022-11-10T21:07:42.594Z,21.98
2022-11-10T21:10:28.582Z,21.45
2022-11-10T21:13:14.486Z,21.80
2022-11-10T21:16:02.761Z,21.10
2022-11-10T21:18:48.606Z,21.63
2022-11-10T21:21:34.928Z,21.23
2022-11-10T21:24:21.109Z,20.02
2022-11-10T21:29:55.980Z,21.85
2022-11-10T21:32:41.906Z,20.25
2022-11-10T21:35:28.015Z,20.85
2022-11-10T21:38:14.293Z,20.50
2022-11-10T21:41:00.478Z,20.58
2022-11-10T21:43:46.398Z,44.63
2022-11-10T21:46:32.454Z,24.50
2022-11-10T21:49:18.477Z,21.85
2022-11-10T21:52:04.073Z,23.10
2022-11-10T21:54:49.966Z,24.35
2022-11-10T22:00:22.028Z,24.40
2022-11-10T22:05:53.574Z,24.45
2022-11-10T22:08:41.167Z,26.33
2022-11-10T22:11:45.141Z,25.52
2022-11-10T22:14:49.435Z,23.30
2022-11-10T22:17:54.463Z,21.92
2022-11-10T22:20:40.526Z,20.67
2022-11-10T22:23:44.989Z,19.00
2022-11-10T22:26:31.185Z,19.23
2022-11-10T22:29:17.268Z,18.75
2022-11-10T22:32:04.040Z,18.13
2022-11-10T22:34:49.862Z,17.13
2022-11-10T22:37:35.609Z,17.55
2022-11-10T22:40:40.023Z,17.60
2022-11-10T22:43:44.317Z,17.92
2022-11-10T22:46:35.516Z,18.15
2022-11-10T22:49:23.845Z,18.15
2022-11-10T22:52:10.472Z,20.23
2022-11-10T22:54:57.841Z,21.60
2022-11-10T22:57:43.623Z,22.08
2022-11-10T23:00:29.431Z,21.80
2022-11-10T23:03:15.452Z,22.08
2022-11-10T23:06:01.120Z,21.65
2022-11-10T23:08:47.461Z,19.30
2022-11-10T23:11:34.422Z,19.15
2022-11-10T23:14:20.510Z,19.25
2022-11-10T23:17:08.535Z,20.17
2022-11-10T23:19:54.214Z,18.25
2022-11-10T23:22:40.192Z,27.10
2022-11-10T23:25:26.117Z,24.55
2022-11-10T23:28:11.775Z,16.70
2022-11-10T23:31:12.792Z,15.25
2022-11-10T23:33:58.534Z,14.70
2022-11-10T23:36:44.276Z,13.68
2022-11-10T23:39:30.613Z,14.43
2022-11-10T23:42:16.829Z,14.05
2022-11-10T23:45:02.618Z,13.82
2022-11-10T23:50:34.665Z,15.75
2022-11-10T23:53:20.672Z,14.00
2022-11-10T23:56:10.811Z,15.35
2022-11-10T23:58:56.744Z,14.52
